sensor_id;sensor_type;location;lat;lon;timestamp;P1;durP1;ratioP1;P2;durP2;ratioP2
38190;SDS011;25191;47.510;19.124;2023-02-14T00:01:59;5.93;;;3.75;;
38190;SDS011;25191;47.510;19.124;2023-02-14T00:12:00;6.18;;;3.60;;
38190;SDS011;25191;47.510;19.124;2023-02-14T00:22:01;3.90;;;3.20;;
38190;SDS011;25191;47.510;19.124;2023-02-14T00:32:02;3.85;;;3.08;;
38190;SDS011;25191;47.510;19.124;2023-02-14T00:42:02;4.60;;;3.22;;
38190;SDS011;25191;47.510;19.124;2023-02-14T00:52:03;4.38;;;3.35;;
38190;SDS011;25191;47.510;19.124;2023-02-14T01:02:03;4.97;;;3.50;;
38190;SDS011;25191;47.510;19.124;2023-02-14T01:12:04;3.95;;;3.00;;
38190;SDS011;25191;47.510;19.124;2023-02-14T01:22:04;4.00;;;3.42;;
38190;SDS011;25191;47.510;19.124;2023-02-14T01:32:05;4.72;;;3.28;;
38190;SDS011;25191;47.510;19.124;2023-02-14T01:42:05;4.65;;;2.92;;
38190;SDS011;25191;47.510;19.124;2023-02-14T01:52:10;4.70;;;2.97;;
38190;SDS011;25191;47.510;19.124;2023-02-14T02:02:33;4.55;;;3.00;;
38190;SDS011;25191;47.510;19.124;2023-02-14T02:12:33;4.07;;;3.10;;
38190;SDS011;25191;47.510;19.124;2023-02-14T02:53:52;3.92;;;2.97;;
38190;SDS011;25191;47.510;19.124;2023-02-14T03:04:02;4.88;;;3.47;;
38190;SDS011;25191;47.510;19.124;2023-02-14T03:14:34;3.83;;;3.13;;
38190;SDS011;25191;47.510;19.124;2023-02-14T03:24:46;3.50;;;2.85;;
38190;SDS011;25191;47.510;19.124;2023-02-14T03:45:15;4.38;;;3.08;;
38190;SDS011;25191;47.510;19.124;2023-02-14T03:55:23;3.92;;;3.17;;
38190;SDS011;25191;47.510;19.124;2023-02-14T04:05:30;3.40;;;2.80;;
38190;SDS011;25191;47.510;19.124;2023-02-14T04:15:31;4.68;;;3.25;;
38190;SDS011;25191;47.510;19.124;2023-02-14T04:25:32;3.55;;;2.90;;
38190;SDS011;25191;47.510;19.124;2023-02-14T04:35:32;3.85;;;2.75;;
38190;SDS011;25191;47.510;19.124;2023-02-14T04:45:34;3.80;;;3.00;;
38190;SDS011;25191;47.510;19.124;2023-02-14T04:55:35;3.45;;;2.85;;
38190;SDS011;25191;47.510;19.124;2023-02-14T05:05:35;3.72;;;3.00;;
38190;SDS011;25191;47.510;19.124;2023-02-14T05:15:36;4.85;;;2.90;;
38190;SDS011;25191;47.510;19.124;2023-02-14T05:25:36;5.93;;;3.30;;
38190;SDS011;25191;47.510;19.124;2023-02-14T05:35:37;8.52;;;3.60;;
38190;SDS011;25191;47.510;19.124;2023-02-14T05:45:40;6.75;;;3.63;;
38190;SDS011;25191;47.510;19.124;2023-02-14T05:55:40;16.10;;;4.20;;
38190;SDS011;25191;47.510;19.124;2023-02-14T06:05:43;18.65;;;7.35;;
38190;SDS011;25191;47.510;19.124;2023-02-14T06:15:43;21.90;;;8.20;;
38190;SDS011;25191;47.510;19.124;2023-02-14T06:25:44;12.07;;;6.63;;
38190;SDS011;25191;47.510;19.124;2023-02-14T06:35:44;13.50;;;6.03;;
38190;SDS011;25191;47.510;19.124;2023-02-14T06:45:45;13.23;;;5.57;;
38190;SDS011;25191;47.510;19.124;2023-02-14T06:55:48;8.98;;;5.30;;
38190;SDS011;25191;47.510;19.124;2023-02-14T07:05:48;9.00;;;5.30;;
38190;SDS011;25191;47.510;19.124;2023-02-14T07:15:49;16.80;;;5.25;;
38190;SDS011;25191;47.510;19.124;2023-02-14T07:25:49;11.38;;;5.10;;
38190;SDS011;25191;47.510;19.124;2023-02-14T07:35:49;11.00;;;5.78;;
38190;SDS011;25191;47.510;19.124;2023-02-14T07:45:50;8.50;;;5.55;;
38190;SDS011;25191;47.510;19.124;2023-02-14T07:55:51;11.48;;;6.00;;
38190;SDS011;25191;47.510;19.124;2023-02-14T08:05:51;10.95;;;5.78;;
38190;SDS011;25191;47.510;19.124;2023-02-14T08:15:56;10.68;;;5.82;;
38190;SDS011;25191;47.510;19.124;2023-02-14T08:26:05;10.07;;;6.15;;
38190;SDS011;25191;47.510;19.124;2023-02-14T08:36:05;10.13;;;6.68;;
38190;SDS011;25191;47.510;19.124;2023-02-14T08:46:06;10.43;;;6.90;;
38190;SDS011;25191;47.510;19.124;2023-02-14T08:56:08;10.73;;;7.28;;
38190;SDS011;25191;47.510;19.124;2023-02-14T09:06:14;10.60;;;7.70;;
38190;SDS011;25191;47.510;19.124;2023-02-14T09:16:16;11.02;;;6.75;;
38190;SDS011;25191;47.510;19.124;2023-02-14T09:26:17;9.50;;;6.25;;
38190;SDS011;25191;47.510;19.124;2023-02-14T09:36:18;7.97;;;6.07;;
38190;SDS011;25191;47.510;19.124;2023-02-14T09:46:39;9.02;;;6.13;;
38190;SDS011;25191;47.510;19.124;2023-02-14T09:56:59;7.70;;;6.03;;
38190;SDS011;25191;47.510;19.124;2023-02-14T10:07:10;9.38;;;5.88;;
38190;SDS011;25191;47.510;19.124;2023-02-14T10:28:00;8.20;;;5.95;;
38190;SDS011;25191;47.510;19.124;2023-02-14T10:38:08;6.97;;;5.57;;
38190;SDS011;25191;47.510;19.124;2023-02-14T10:49:01;8.52;;;5.28;;
38190;SDS011;25191;47.510;19.124;2023-02-14T10:58:53;7.20;;;5.35;;
38190;SDS011;25191;47.510;19.124;2023-02-14T11:08:57;6.63;;;5.47;;
38190;SDS011;25191;47.510;19.124;2023-02-14T11:29:15;6.10;;;4.90;;
38190;SDS011;25191;47.510;19.124;2023-02-14T11:39:31;9.10;;;5.00;;
38190;SDS011;25191;47.510;19.124;2023-02-14T11:49:40;7.13;;;5.03;;
38190;SDS011;25191;47.510;19.124;2023-02-14T11:59:54;6.47;;;4.75;;
38190;SDS011;25191;47.510;19.124;2023-02-14T12:20:15;5.63;;;4.80;;
38190;SDS011;25191;47.510;19.124;2023-02-14T12:30:24;8.10;;;4.65;;
38190;SDS011;25191;47.510;19.124;2023-02-14T12:40:36;5.80;;;4.40;;
38190;SDS011;25191;47.510;19.124;2023-02-14T13:21:23;5.80;;;4.07;;
38190;SDS011;25191;47.510;19.124;2023-02-14T13:31:26;6.53;;;3.70;;
38190;SDS011;25191;47.510;19.124;2023-02-14T13:41:27;5.72;;;3.47;;
38190;SDS011;25191;47.510;19.124;2023-02-14T13:51:44;5.60;;;3.45;;
38190;SDS011;25191;47.510;19.124;2023-02-14T14:01:47;8.43;;;3.40;;
38190;SDS011;25191;47.510;19.124;2023-02-14T14:11:49;14.70;;;4.40;;
38190;SDS011;25191;47.510;19.124;2023-02-14T14:22:09;7.00;;;3.50;;
38190;SDS011;25191;47.510;19.124;2023-02-14T14:32:17;9.70;;;3.42;;
38190;SDS011;25191;47.510;19.124;2023-02-14T14:42:23;3.45;;;3.00;;
38190;SDS011;25191;47.510;19.124;2023-02-14T14:52:29;5.97;;;3.40;;
38190;SDS011;25191;47.510;19.124;2023-02-14T15:02:36;5.90;;;2.90;;
38190;SDS011;25191;47.510;19.124;2023-02-14T15:12:37;5.40;;;3.15;;
38190;SDS011;25191;47.510;19.124;2023-02-14T15:22:56;4.45;;;3.25;;
38190;SDS011;25191;47.510;19.124;2023-02-14T15:32:57;4.85;;;3.30;;
38190;SDS011;25191;47.510;19.124;2023-02-14T15:43:20;7.68;;;3.67;;
38190;SDS011;25191;47.510;19.124;2023-02-14T15:53:47;17.35;;;7.72;;
38190;SDS011;25191;47.510;19.124;2023-02-14T16:03:58;9.05;;;5.45;;
38190;SDS011;25191;47.510;19.124;2023-02-14T16:24:34;12.55;;;4.95;;
38190;SDS011;25191;47.510;19.124;2023-02-14T16:34:36;9.27;;;4.13;;
38190;SDS011;25191;47.510;19.124;2023-02-14T16:44:38;8.93;;;4.15;;
38190;SDS011;25191;47.510;19.124;2023-02-14T16:54:42;13.68;;;4.55;;
38190;SDS011;25191;47.510;19.124;2023-02-14T17:04:43;10.80;;;4.20;;
38190;SDS011;25191;47.510;19.124;2023-02-14T17:14:45;10.02;;;4.35;;
38190;SDS011;25191;47.510;19.124;2023-02-14T17:24:50;11.52;;;4.20;;
38190;SDS011;25191;47.510;19.124;2023-02-14T17:34:51;13.75;;;4.43;;
38190;SDS011;25191;47.510;19.124;2023-02-14T17:44:54;8.50;;;3.97;;
38190;SDS011;25191;47.510;19.124;2023-02-14T17:54:54;14.98;;;4.80;;
38190;SDS011;25191;47.510;19.124;2023-02-14T18:04:57;9.40;;;4.53;;
38190;SDS011;25191;47.510;19.124;2023-02-14T18:14:58;9.53;;;5.10;;
38190;SDS011;25191;47.510;19.124;2023-02-14T18:24:59;10.73;;;5.40;;
38190;SDS011;25191;47.510;19.124;2023-02-14T18:35:06;22.15;;;16.20;;
38190;SDS011;25191;47.510;19.124;2023-02-14T18:45:08;16.02;;;12.30;;
38190;SDS011;25191;47.510;19.124;2023-02-14T18:55:09;19.55;;;11.60;;
38190;SDS011;25191;47.510;19.124;2023-02-14T19:05:10;17.05;;;11.27;;
38190;SDS011;25191;47.510;19.124;2023-02-14T19:15:12;15.88;;;9.70;;
38190;SDS011;25191;47.510;19.124;2023-02-14T19:25:16;15.98;;;9.13;;
38190;SDS011;25191;47.510;19.124;2023-02-14T19:35:17;14.80;;;9.27;;
38190;SDS011;25191;47.510;19.124;2023-02-14T19:45:19;12.88;;;8.38;;
38190;SDS011;25191;47.510;19.124;2023-02-14T19:55:21;11.27;;;8.33;;
38190;SDS011;25191;47.510;19.124;2023-02-14T20:05:22;15.10;;;7.80;;
38190;SDS011;25191;47.510;19.124;2023-02-14T20:15:26;17.97;;;8.30;;
38190;SDS011;25191;47.510;19.124;2023-02-14T20:25:28;10.25;;;7.35;;
38190;SDS011;25191;47.510;19.124;2023-02-14T20:35:29;12.55;;;8.15;;
38190;SDS011;25191;47.510;19.124;2023-02-14T20:45:33;10.43;;;7.53;;
38190;SDS011;25191;47.510;19.124;2023-02-14T20:55:37;9.45;;;6.72;;
38190;SDS011;25191;47.510;19.124;2023-02-14T21:05:41;13.00;;;7.25;;
38190;SDS011;25191;47.510;19.124;2023-02-14T21:15:42;10.60;;;7.20;;
38190;SDS011;25191;47.510;19.124;2023-02-14T21:25:45;11.13;;;7.20;;
38190;SDS011;25191;47.510;19.124;2023-02-14T21:35:46;8.10;;;6.45;;
38190;SDS011;25191;47.510;19.124;2023-02-14T21:45:48;8.53;;;6.40;;
38190;SDS011;25191;47.510;19.124;2023-02-14T21:55:52;9.27;;;6.35;;
38190;SDS011;25191;47.510;19.124;2023-02-14T22:05:59;8.85;;;6.38;;
38190;SDS011;25191;47.510;19.124;2023-02-14T22:16:05;9.73;;;6.18;;
38190;SDS011;25191;47.510;19.124;2023-02-14T22:26:15;8.38;;;6.10;;
38190;SDS011;25191;47.510;19.124;2023-02-14T22:36:26;8.25;;;5.78;;
38190;SDS011;25191;47.510;19.124;2023-02-14T22:46:27;7.40;;;5.90;;
38190;SDS011;25191;47.510;19.124;2023-02-14T22:56:31;8.85;;;5.85;;
38190;SDS011;25191;47.510;19.124;2023-02-14T23:06:34;8.02;;;5.95;;
38190;SDS011;25191;47.510;19.124;2023-02-14T23:16:35;9.43;;;6.40;;
38190;SDS011;25191;47.510;19.124;2023-02-14T23:26:54;7.30;;;5.72;;
38190;SDS011;25191;47.510;19.124;2023-02-14T23:36:55;7.47;;;5.75;;
38190;SDS011;25191;47.510;19.124;2023-02-14T23:46:57;7.07;;;5.90;;
38190;SDS011;25191;47.510;19.124;2023-02-14T23:57:01;7.20;;;5.47;;
